Time;durP1;ratioP1;P1;durP2;ratioP2;P2;SDS_P1;SDS_P2;PMS_P1;PMS_P2;Temp;Humidity;BMP_temperature;BMP_pressure;BME280_temperature;BME280_humidity;BME280_pressure;Samples;Min_cycle;Max_cycle;Signal;HPM_P1;HPM_P2
2023/03/01 00:00:06;;;;;;;35.38;22.52;;;-0.20;99.90;;;;;;4992857;28;20224;-61
2023/03/01 00:02:33;;;;;;;28.65;20.58;;;-0.20;99.90;;;;;;4992836;28;20195;-61
2023/03/01 00:04:59;;;;;;;31.23;19.30;;;-0.10;99.90;;;;;;4992752;28;20195;-61
2023/03/01 00:07:26;;;;;;;27.67;21.23;;;-0.10;99.90;;;;;;4992772;28;20287;-61
2023/03/01 00:09:54;;;;;;;28.77;22.05;;;-0.10;99.90;;;;;;4992568;28;20522;-61
2023/03/01 00:12:20;;;;;;;31.50;21.70;;;-0.10;99.90;;;;;;4992937;28;20193;-61
2023/03/01 00:14:47;;;;;;;39.75;23.45;;;-0.20;99.90;;;;;;4992761;28;20222;-61
2023/03/01 00:17:13;;;;;;;34.90;24.23;;;-0.20;99.90;;;;;;4992714;28;20283;-61
2023/03/01 00:19:40;;;;;;;36.17;26.70;;;-0.20;99.90;;;;;;4992582;28;20631;-61
2023/03/01 00:22:06;;;;;;;33.83;24.33;;;-0.20;99.90;;;;;;4992637;28;20192;-61
2023/03/01 00:24:33;;;;;;;33.97;24.90;;;-0.20;99.90;;;;;;4992427;28;20279;-61
2023/03/01 00:27:01;;;;;;;30.92;22.50;;;-0.10;99.90;;;;;;4992609;28;20307;-61
2023/03/01 00:29:28;;;;;;;35.45;23.00;;;-0.10;99.90;;;;;;4992597;28;20197;-61
2023/03/01 00:31:54;;;;;;;31.63;22.38;;;-0.20;99.90;;;;;;4992514;28;20363;-61
2023/03/01 00:34:21;;;;;;;40.88;22.77;;;-0.20;99.90;;;;;;4992548;28;20279;-61
2023/03/01 00:36:48;;;;;;;33.65;23.00;;;-0.20;99.90;;;;;;4996090;28;20224;-61
2023/03/01 00:39:15;;;;;;;29.95;20.48;;;-0.30;99.90;;;;;;4995877;28;20188;-61
2023/03/01 00:41:43;;;;;;;30.50;22.23;;;-0.30;99.90;;;;;;4996089;28;20200;-61
2023/03/01 00:44:11;;;;;;;28.63;20.75;;;-0.20;99.90;;;;;;4996044;28;20271;-61
2023/03/01 00:46:38;;;;;;;26.15;19.05;;;-0.40;99.90;;;;;;4995829;28;20799;-61
2023/03/01 00:49:05;;;;;;;27.05;20.88;;;-0.40;99.90;;;;;;4995750;28;20192;-61
2023/03/01 00:51:32;;;;;;;32.58;22.13;;;-0.40;99.90;;;;;;4995803;28;20195;-61
2023/03/01 00:54:01;;;;;;;24.83;20.90;;;-0.50;99.90;;;;;;4995851;28;20232;-61
2023/03/01 00:56:28;;;;;;;24.98;20.38;;;-0.60;99.90;;;;;;4995719;28;20281;-61
2023/03/01 00:58:54;;;;;;;31.38;21.38;;;-0.60;99.90;;;;;;4995654;28;20311;-61
2023/03/01 01:01:27;;;;;;;27.92;21.10;;;-0.60;99.90;;;;;;4995582;28;20207;-61
2023/03/01 01:03:55;;;;;;;29.42;21.27;;;-0.50;99.90;;;;;;4995449;28;20200;-61
2023/03/01 01:06:23;;;;;;;31.45;22.15;;;-0.50;99.90;;;;;;4995566;28;20226;-61
2023/03/01 01:08:51;;;;;;;30.17;21.20;;;-0.60;99.90;;;;;;4995493;28;20275;-61
2023/03/01 01:11:20;;;;;;;29.15;21.50;;;-0.60;99.90;;;;;;4995411;28;20189;-61
2023/03/01 01:13:48;;;;;;;28.67;22.00;;;-0.60;99.90;;;;;;4995159;28;20651;-61
2023/03/01 01:16:15;;;;;;;27.88;21.35;;;-0.50;99.90;;;;;;4995155;28;20227;-61
2023/03/01 01:18:43;;;;;;;28.00;20.42;;;-0.80;99.90;;;;;;4995035;28;20279;-61
2023/03/01 01:21:11;;;;;;;27.55;21.65;;;-0.80;99.90;;;;;;4995175;28;20279;-61
2023/03/01 01:23:39;;;;;;;27.25;20.75;;;-0.80;99.90;;;;;;4995188;28;20228;-61
2023/03/01 01:26:07;;;;;;;33.95;23.27;;;-0.90;99.90;;;;;;4995095;28;20216;-61
2023/03/01 01:28:33;;;;;;;28.65;23.35;;;-0.90;99.90;;;;;;4994931;28;20196;-61
2023/03/01 01:31:00;;;;;;;30.92;20.92;;;-0.80;99.90;;;;;;4994878;28;20604;-61
2023/03/01 01:33:27;;;;;;;25.90;19.65;;;-0.80;99.90;;;;;;4995047;28;20207;-61
2023/03/01 01:35:55;;;;;;;27.42;20.27;;;-0.70;99.90;;;;;;4994771;28;20234;-61
2023/03/01 01:38:22;;;;;;;24.42;19.60;;;-0.80;99.90;;;;;;4994934;28;20220;-61
2023/03/01 01:40:50;;;;;;;27.73;21.15;;;-0.80;99.90;;;;;;4994802;28;20197;-61
2023/03/01 01:43:22;;;;;;;28.95;19.77;;;-0.90;99.90;;;;;;4994692;28;20201;-61
2023/03/01 01:45:49;;;;;;;23.70;17.90;;;-0.80;99.90;;;;;;4994270;28;20216;-61
2023/03/01 01:48:21;;;;;;;26.95;18.88;;;-0.70;99.90;;;;;;4994534;28;20203;-61
2023/03/01 01:50:55;;;;;;;24.63;18.05;;;-0.70;99.90;;;;;;4994778;28;20231;-61
2023/03/01 01:53:25;;;;;;;23.65;18.00;;;-0.70;99.90;;;;;;4994734;28;20279;-61
2023/03/01 01:55:56;;;;;;;27.95;19.35;;;-0.80;99.90;;;;;;4994487;28;20197;-61
2023/03/01 01:58:25;;;;;;;26.58;17.33;;;-0.90;99.90;;;;;;4994427;28;20193;-61
2023/03/01 02:00:51;;;;;;;27.23;18.90;;;-1.00;99.90;;;;;;4994730;28;20202;-61
2023/03/01 02:03:23;;;;;;;23.33;19.00;;;-1.00;99.90;;;;;;4994444;28;20214;-61
2023/03/01 02:05:54;;;;;;;27.98;18.05;;;-1.00;99.90;;;;;;4994321;28;20283;-61
2023/03/01 02:08:25;;;;;;;26.77;18.15;;;-1.00;99.90;;;;;;4994306;28;20202;-61
2023/03/01 02:10:53;;;;;;;21.70;15.82;;;-1.10;99.90;;;;;;4994446;28;20196;-61
2023/03/01 02:13:20;;;;;;;20.35;15.40;;;-1.10;99.90;;;;;;4994285;28;20224;-61
2023/03/01 02:15:47;;;;;;;20.02;15.05;;;-1.10;99.90;;;;;;4993970;28;20280;-61
2023/03/01 02:18:18;;;;;;;21.85;15.00;;;-1.00;99.90;;;;;;4994060;28;20194;-61
2023/03/01 02:20:57;;;;;;;22.60;17.60;;;-1.00;99.90;;;;;;4994079;28;20196;-61
2023/03/01 02:23:25;;;;;;;30.35;16.77;;;-1.00;99.90;;;;;;4993864;28;20299;-61
2023/03/01 02:25:58;;;;;;;20.77;16.10;;;-1.10;99.90;;;;;;4993984;28;20225;-61
2023/03/01 02:28:30;;;;;;;24.80;17.05;;;-1.00;99.90;;;;;;4993986;28;20199;-61
2023/03/01 02:33:43;;;;;;;26.55;17.42;;;-1.10;99.90;;;;;;4993746;28;20199;-61
2023/03/01 02:36:14;;;;;;;23.60;17.90;;;-1.10;99.90;;;;;;4993600;28;20602;-61
2023/03/01 02:38:42;;;;;;;25.15;18.42;;;-1.30;99.90;;;;;;4993804;28;20295;-61
2023/03/01 02:41:10;;;;;;;26.92;18.80;;;-1.40;99.90;;;;;;4993499;28;20196;-61
2023/03/01 02:43:38;;;;;;;22.98;16.95;;;-1.30;99.90;;;;;;4993681;28;20789;-61
2023/03/01 02:46:09;;;;;;;29.23;18.80;;;-1.30;99.90;;;;;;4993622;28;20203;-61
2023/03/01 02:48:44;;;;;;;24.40;18.65;;;-1.30;99.90;;;;;;4993729;28;20192;-61
2023/03/01 02:51:28;;;;;;;29.25;19.30;;;-1.30;99.90;;;;;;4993559;28;20274;-61
2023/03/01 02:54:06;;;;;;;27.40;19.38;;;-1.50;99.90;;;;;;4993537;28;20223;-61
2023/03/01 02:56:33;;;;;;;28.80;18.67;;;-1.80;99.90;;;;;;4993327;28;20283;-61
2023/03/01 02:59:02;;;;;;;23.80;18.17;;;-2.00;99.90;;;;;;4992849;28;20286;-61
2023/03/01 03:01:36;;;;;;;24.63;16.98;;;-1.80;99.90;;;;;;4993499;28;20614;-61
2023/03/01 03:04:04;;;;;;;26.02;18.70;;;-1.70;99.90;;;;;;4993433;28;20230;-61
2023/03/01 03:06:30;;;;;;;26.05;18.58;;;-1.70;99.90;;;;;;4993195;28;20217;-61
2023/03/01 03:08:57;;;;;;;25.98;18.05;;;-1.60;99.90;;;;;;4993142;28;20624;-61
2023/03/01 03:11:24;;;;;;;20.58;16.77;;;-1.50;99.90;;;;;;4993225;28;20227;-60
2023/03/01 03:13:51;;;;;;;25.52;17.58;;;-1.40;99.90;;;;;;4993533;28;20203;-61
2023/03/01 03:16:20;;;;;;;19.13;15.75;;;-1.30;99.90;;;;;;4993293;28;20616;-61
2023/03/01 03:18:46;;;;;;;21.65;15.52;;;-1.30;99.90;;;;;;4993275;28;20223;-61
2023/03/01 03:21:13;;;;;;;21.00;15.32;;;-1.30;99.90;;;;;;4993199;28;20287;-61
2023/03/01 03:23:40;;;;;;;22.10;17.20;;;-1.40;99.90;;;;;;4993127;28;20279;-61
2023/03/01 03:26:07;;;;;;;23.20;15.05;;;-1.50;99.90;;;;;;4993122;28;20234;-61
2023/03/01 03:28:35;;;;;;;20.85;14.35;;;-1.50;99.90;;;;;;4993027;28;20283;-61
2023/03/01 03:31:03;;;;;;;18.02;15.20;;;-1.50;99.90;;;;;;4993167;28;20218;-61
2023/03/01 03:33:31;;;;;;;20.95;15.10;;;-1.50;99.90;;;;;;4992949;28;20235;-61
2023/03/01 03:35:58;;;;;;;18.85;14.98;;;-1.50;99.90;;;;;;4992744;28;20318;-61
2023/03/01 03:38:25;;;;;;;19.33;15.20;;;-1.40;99.90;;;;;;4992816;28;20212;-61
2023/03/01 03:40:52;;;;;;;18.83;15.75;;;-1.50;99.90;;;;;;4993086;28;20191;-61
2023/03/01 03:43:21;;;;;;;17.90;15.15;;;-1.60;99.90;;;;;;4993047;28;20223;-61
2023/03/01 03:45:48;;;;;;;18.85;13.80;;;-1.70;99.90;;;;;;4992908;28;20284;-61
2023/03/01 03:48:15;;;;;;;18.92;14.10;;;-1.80;99.90;;;;;;4992699;28;20224;-61
2023/03/01 03:50:49;;;;;;;15.70;12.68;;;-1.70;99.90;;;;;;4992683;28;20611;-61
2023/03/01 03:53:16;;;;;;;17.85;14.02;;;-1.70;99.90;;;;;;4992971;28;20219;-61
2023/03/01 03:55:44;;;;;;;19.17;15.18;;;-1.70;99.90;;;;;;4992882;28;20303;-61
2023/03/01 03:58:11;;;;;;;18.77;14.05;;;-1.80;99.90;;;;;;4992715;28;20647;-61
2023/03/01 04:00:41;;;;;;;19.17;13.90;;;-1.80;99.90;;;;;;4992728;28;20203;-61
2023/03/01 04:03:09;;;;;;;18.50;14.35;;;-1.90;99.90;;;;;;4992596;28;20206;-61
2023/03/01 04:05:36;;;;;;;17.15;14.18;;;-2.00;99.90;;;;;;4992949;28;20547;-61
2023/03/01 04:08:06;;;;;;;20.23;14.45;;;-1.90;99.90;;;;;;4992421;28;20579;-61
2023/03/01 04:10:35;;;;;;;24.33;15.88;;;-1.80;99.90;;;;;;4996213;28;20555;-61
2023/03/01 04:13:01;;;;;;;16.13;13.23;;;-1.80;99.90;;;;;;4996411;28;20203;-61
2023/03/01 04:15:28;;;;;;;18.90;14.35;;;-1.80;99.90;;;;;;4996412;28;20197;-61
2023/03/01 04:17:56;;;;;;;21.88;15.85;;;-1.80;99.90;;;;;;4996172;28;20231;-61
2023/03/01 04:20:25;;;;;;;17.75;14.13;;;-1.80;99.90;;;;;;4996430;28;20282;-61
2023/03/01 04:22:53;;;;;;;16.65;13.18;;;-1.80;99.90;;;;;;4996395;28;20192;-61
2023/03/01 04:25:21;;;;;;;22.17;13.40;;;-1.80;99.90;;;;;;4996148;28;20192;-61
2023/03/01 04:27:47;;;;;;;14.70;13.10;;;-1.90;99.90;;;;;;4996023;28;20236;-60
2023/03/01 04:30:14;;;;;;;16.40;13.30;;;-1.90;99.90;;;;;;4995936;28;20559;-61
2023/03/01 04:32:41;;;;;;;18.45;13.90;;;-1.90;99.90;;;;;;4995941;28;20196;-61
2023/03/01 04:35:08;;;;;;;16.95;12.55;;;-1.80;99.90;;;;;;4995978;28;20307;-61
2023/03/01 04:37:35;;;;;;;17.85;12.63;;;-1.80;99.90;;;;;;4996401;28;20355;-61
2023/03/01 04:40:12;;;;;;;17.60;14.43;;;-1.90;99.90;;;;;;4996019;28;20543;-61
2023/03/01 04:42:39;;;;;;;17.35;14.13;;;-2.10;99.90;;;;;;4995912;28;20200;-60
2023/03/01 04:45:12;;;;;;;17.30;12.82;;;-2.00;99.90;;;;;;4995704;28;20189;-60
2023/03/01 04:47:39;;;;;;;14.32;12.82;;;-2.10;99.90;;;;;;4995798;28;20224;-61
2023/03/01 04:50:07;;;;;;;20.60;14.20;;;-2.00;99.90;;;;;;4995827;28;20192;-61
2023/03/01 04:52:33;;;;;;;23.42;15.55;;;-2.00;99.90;;;;;;4995559;28;20663;-60
2023/03/01 04:55:00;;;;;;;20.27;13.65;;;-2.10;99.90;;;;;;4995653;28;20199;-61
2023/03/01 04:57:26;;;;;;;16.58;13.25;;;-2.10;99.90;;;;;;4995438;28;20192;-61
2023/03/01 04:59:54;;;;;;;17.38;12.60;;;-2.10;99.90;;;;;;4995676;28;20193;-61
2023/03/01 05:02:21;;;;;;;15.23;11.10;;;-2.10;99.90;;;;;;4995601;28;20287;-61
2023/03/01 05:04:47;;;;;;;16.98;13.05;;;-2.10;99.90;;;;;;4995388;28;20285;-61
2023/03/01 05:07:19;;;;;;;19.17;15.43;;;-2.00;99.90;;;;;;4995444;28;20255;-61
2023/03/01 05:09:46;;;;;;;16.40;13.00;;;-2.10;99.90;;;;;;4995391;28;20628;-60
2023/03/01 05:12:12;;;;;;;20.13;13.70;;;-2.30;99.90;;;;;;4995486;28;20197;-61
2023/03/01 05:14:39;;;;;;;19.73;14.80;;;-2.40;99.90;;;;;;4995385;28;20222;-61
2023/03/01 05:17:07;;;;;;;21.15;14.38;;;-2.50;99.90;;;;;;4995272;28;20285;-61
2023/03/01 05:19:34;;;;;;;20.08;14.15;;;-2.40;99.90;;;;;;4995204;28;20292;-61
2023/03/01 05:22:04;;;;;;;20.48;14.88;;;-2.30;99.90;;;;;;4994539;28;20189;-61
2023/03/01 05:24:32;;;;;;;21.98;15.88;;;-2.30;99.90;;;;;;4994951;28;20286;-61
2023/03/01 05:26:59;;;;;;;17.35;12.40;;;-2.30;99.90;;;;;;4995370;28;20220;-61
2023/03/01 05:29:28;;;;;;;18.45;14.75;;;-2.40;99.90;;;;;;4995174;28;20279;-61
2023/03/01 05:31:55;;;;;;;25.05;17.00;;;-2.40;99.90;;;;;;4995412;28;20201;-61
2023/03/01 05:34:26;;;;;;;21.42;14.25;;;-2.40;99.90;;;;;;4995085;28;20364;-61
2023/03/01 05:36:54;;;;;;;21.05;14.02;;;-2.40;99.90;;;;;;4994786;28;20316;-61
2023/03/01 05:39:22;;;;;;;21.67;14.20;;;-2.40;99.90;;;;;;4995063;28;20218;-61
2023/03/01 05:41:48;;;;;;;22.30;14.82;;;-2.40;99.90;;;;;;4995065;28;20192;-61
2023/03/01 05:44:15;;;;;;;20.77;15.63;;;-2.40;99.90;;;;;;4994844;28;20201;-60
2023/03/01 05:46:42;;;;;;;19.48;14.32;;;-2.40;99.90;;;;;;4994767;28;20227;-60
2023/03/01 05:49:08;;;;;;;21.10;14.20;;;-2.30;99.90;;;;;;4994548;28;20300;-61
2023/03/01 05:51:36;;;;;;;21.33;14.00;;;-2.20;99.90;;;;;;4994468;28;20188;-61
2023/03/01 05:54:05;;;;;;;16.08;12.68;;;-2.30;99.90;;;;;;4994683;28;20287;-61
2023/03/01 05:56:33;;;;;;;20.00;13.98;;;-2.20;99.90;;;;;;4994621;28;20583;-61
2023/03/01 05:58:59;;;;;;;21.75;13.38;;;-2.30;99.90;;;;;;4994579;28;20676;-61
2023/03/01 06:01:26;;;;;;;19.58;13.38;;;-2.30;99.90;;;;;;4994331;28;20275;-61
2023/03/01 06:03:52;;;;;;;17.30;13.05;;;-2.40;99.90;;;;;;4994370;28;20279;-61
2023/03/01 06:06:19;;;;;;;14.73;11.45;;;-2.30;99.90;;;;;;4994211;28;20226;-61
2023/03/01 06:08:47;;;;;;;18.15;13.43;;;-2.20;99.90;;;;;;4994319;28;20220;-61
2023/03/01 06:11:13;;;;;;;19.83;14.43;;;-2.20;99.90;;;;;;4994557;28;20279;-61
2023/03/01 06:13:40;;;;;;;19.05;14.80;;;-2.40;99.90;;;;;;4994128;28;20288;-61
2023/03/01 06:16:07;;;;;;;18.75;14.13;;;-2.50;99.90;;;;;;4994179;28;20662;-61
2023/03/01 06:18:34;;;;;;;15.73;12.75;;;-2.40;99.90;;;;;;4994148;28;20280;-61
2023/03/01 06:21:00;;;;;;;18.67;14.48;;;-2.40;99.90;;;;;;4994237;28;20196;-61
2023/03/01 06:23:27;;;;;;;16.42;13.95;;;-2.20;99.90;;;;;;4994121;28;20284;-61
2023/03/01 06:25:54;;;;;;;17.05;14.55;;;-2.10;99.90;;;;;;4994027;28;20227;-61
2023/03/01 06:28:22;;;;;;;21.08;13.40;;;-2.00;99.90;;;;;;4994174;28;20231;-61
2023/03/01 06:30:48;;;;;;;21.60;14.38;;;-1.90;99.90;;;;;;4993885;28;20199;-61
2023/03/01 06:33:15;;;;;;;19.02;13.90;;;-1.90;99.90;;;;;;4992716;28;20196;-61
2023/03/01 06:35:41;;;;;;;21.30;13.95;;;-1.90;99.90;;;;;;4993830;28;20235;-61
2023/03/01 06:38:08;;;;;;;19.98;14.50;;;-1.70;99.90;;;;;;4993801;28;20199;-61
2023/03/01 06:40:35;;;;;;;22.67;16.02;;;-1.70;99.90;;;;;;4993839;28;20674;-61
2023/03/01 06:43:03;;;;;;;16.63;14.43;;;-1.60;99.90;;;;;;4993674;28;20195;-61
2023/03/01 06:45:30;;;;;;;23.83;14.38;;;-1.50;99.90;;;;;;4993785;28;20742;-61
2023/03/01 06:48:04;;;;;;;19.77;15.00;;;-1.50;99.90;;;;;;4993418;28;20219;-61
2023/03/01 06:50:30;;;;;;;19.55;14.93;;;-1.40;99.90;;;;;;4993439;28;20198;-61
2023/03/01 06:52:57;;;;;;;20.65;14.50;;;-1.40;99.90;;;;;;4993247;28;20648;-61
2023/03/01 06:55:24;;;;;;;21.60;15.13;;;-1.30;99.90;;;;;;4993245;28;20188;-61
2023/03/01 06:57:55;;;;;;;19.35;14.00;;;-1.40;99.90;;;;;;4993126;28;20192;-61
2023/03/01 07:00:24;;;;;;;19.92;15.20;;;-1.20;99.90;;;;;;4993167;28;20188;-61
2023/03/01 07:02:50;;;;;;;19.38;15.30;;;-1.00;99.90;;;;;;4993831;28;20249;-61
2023/03/01 07:05:17;;;;;;;22.13;15.43;;;-0.80;99.90;;;;;;4993346;28;20291;-61
2023/03/01 07:07:44;;;;;;;26.58;16.73;;;-0.70;99.90;;;;;;4993216;28;20216;-61
2023/03/01 07:10:11;;;;;;;33.95;19.65;;;-0.60;99.90;;;;;;4993255;28;20546;-61
2023/03/01 07:12:38;;;;;;;27.17;18.52;;;-0.60;99.90;;;;;;4993294;28;20679;-61
2023/03/01 07:15:05;;;;;;;22.02;17.88;;;-0.40;99.90;;;;;;4993043;28;20268;-61
2023/03/01 07:17:33;;;;;;;25.50;18.17;;;-0.30;99.90;;;;;;4993314;28;20280;-61
2023/03/01 07:20:00;;;;;;;23.55;16.35;;;-0.40;99.90;;;;;;4993213;28;20645;-61
2023/03/01 07:22:26;;;;;;;22.77;16.45;;;-0.30;99.90;;;;;;4993202;28;20308;-61
2023/03/01 07:24:53;;;;;;;25.90;15.68;;;-0.10;99.90;;;;;;4993048;28;20203;-61
2023/03/01 07:27:19;;;;;;;25.73;16.58;;;0.10;99.90;;;;;;4993114;28;20200;-61
2023/03/01 07:29:46;;;;;;;28.10;16.85;;;0.30;99.90;;;;;;4992892;28;20677;-60
2023/03/01 07:32:12;;;;;;;24.20;17.45;;;0.40;99.90;;;;;;4993117;28;20250;-61
2023/03/01 07:34:40;;;;;;;25.50;17.02;;;0.60;99.90;;;;;;4992986;28;20656;-61
2023/03/01 07:37:06;;;;;;;22.85;16.98;;;0.70;99.90;;;;;;4992987;28;20564;-61
2023/03/01 07:39:33;;;;;;;25.17;17.02;;;0.80;99.90;;;;;;4993263;28;20284;-61
2023/03/01 07:41:59;;;;;;;22.92;16.65;;;1.00;99.90;;;;;;4992771;28;20647;-61
2023/03/01 07:44:26;;;;;;;18.02;15.15;;;1.20;99.90;;;;;;4994991;28;20218;-62
2023/03/01 07:46:56;;;;;;;20.23;16.70;;;1.40;99.90;;;;;;4997081;28;20258;-61
2023/03/01 07:49:22;;;;;;;23.60;16.48;;;1.40;99.90;;;;;;4996763;28;20220;-61
2023/03/01 07:51:50;;;;;;;18.13;15.82;;;1.50;99.90;;;;;;4996821;28;20228;-61
2023/03/01 07:54:17;;;;;;;22.73;15.82;;;1.60;99.90;;;;;;4996745;28;20197;-61
2023/03/01 07:56:44;;;;;;;18.38;15.38;;;1.60;99.90;;;;;;4996871;28;20191;-61
2023/03/01 07:59:11;;;;;;;17.45;15.07;;;1.70;99.90;;;;;;4996847;28;20299;-61
2023/03/01 08:01:37;;;;;;;18.67;14.68;;;1.80;99.90;;;;;;4996619;28;20278;-61
2023/03/01 08:04:06;;;;;;;19.55;14.25;;;2.00;99.90;;;;;;4996680;28;20396;-61
2023/03/01 08:06:34;;;;;;;18.83;14.38;;;2.20;99.90;;;;;;4996493;28;20556;-61
2023/03/01 08:09:02;;;;;;;17.35;14.55;;;2.20;99.90;;;;;;4996430;28;20216;-62
2023/03/01 08:11:29;;;;;;;21.25;15.18;;;2.30;99.90;;;;;;4996376;28;20224;-61
2023/03/01 08:13:56;;;;;;;17.85;13.55;;;2.40;99.90;;;;;;4996254;28;20303;-61
2023/03/01 08:16:22;;;;;;;16.40;13.00;;;2.50;99.90;;;;;;4996214;28;20196;-59
2023/03/01 08:18:49;;;;;;;16.92;13.57;;;2.70;99.90;;;;;;4995660;28;20280;-62
2023/03/01 08:21:17;;;;;;;22.00;15.25;;;2.90;99.90;;;;;;4976806;28;20285;-62
2023/03/01 08:23:44;;;;;;;18.77;14.95;;;2.90;99.90;;;;;;4976815;28;20280;-61
2023/03/01 08:26:15;;;;;;;13.98;11.45;;;2.90;99.90;;;;;;4976848;28;20241;-61
2023/03/01 08:28:42;;;;;;;13.82;12.38;;;3.00;99.90;;;;;;4976820;28;20230;-59
2023/03/01 08:31:16;;;;;;;16.20;13.35;;;3.20;99.90;;;;;;4976625;28;20300;-59
2023/03/01 08:33:42;;;;;;;14.55;12.40;;;3.20;99.90;;;;;;4976583;28;20236;-59
2023/03/01 08:36:09;;;;;;;17.55;12.25;;;3.30;99.90;;;;;;4976359;28;20314;-60
2023/03/01 08:38:36;;;;;;;13.90;12.45;;;3.40;99.90;;;;;;4976409;28;20193;-60
2023/03/01 08:41:03;;;;;;;14.88;11.98;;;3.50;99.90;;;;;;4976342;28;20212;-57
2023/03/01 08:43:31;;;;;;;13.40;11.70;;;3.60;99.90;;;;;;4976373;28;20214;-60
2023/03/01 08:45:58;;;;;;;16.60;12.57;;;3.80;99.90;;;;;;4976358;28;20230;-60
2023/03/01 08:48:24;;;;;;;15.50;12.77;;;3.90;99.90;;;;;;4976122;28;20313;-57
2023/03/01 08:50:51;;;;;;;13.88;11.18;;;4.00;99.90;;;;;;4976059;28;20296;-57
2023/03/01 08:53:17;;;;;;;16.08;12.65;;;4.20;99.90;;;;;;4976248;28;20218;-57
2023/03/01 08:55:44;;;;;;;18.95;9.93;;;4.30;99.90;;;;;;4975107;28;20549;-56
2023/03/01 08:58:10;;;;;;;10.82;8.48;;;4.40;99.90;;;;;;4976123;28;20206;-58
2023/03/01 09:00:39;;;;;;;8.63;7.72;;;4.50;99.90;;;;;;4976131;28;20241;-57
2023/03/01 09:03:06;;;;;;;7.82;7.05;;;4.60;99.90;;;;;;4976068;28;20229;-60
2023/03/01 09:05:33;;;;;;;7.90;6.03;;;4.70;99.90;;;;;;4976047;28;20198;-59
2023/03/01 09:08:01;;;;;;;7.30;6.60;;;4.80;99.90;;;;;;4975977;28;20195;-57
2023/03/01 09:10:28;;;;;;;13.48;7.70;;;4.90;99.90;;;;;;4974755;28;20238;-59
2023/03/01 09:12:55;;;;;;;10.00;7.57;;;4.90;99.90;;;;;;4976041;28;20230;-59
2023/03/01 09:15:21;;;;;;;9.52;7.85;;;5.00;99.90;;;;;;4975912;28;20627;-61
2023/03/01 09:17:49;;;;;;;11.82;8.57;;;4.90;99.90;;;;;;4975615;28;20199;-60
2023/03/01 09:20:16;;;;;;;8.48;7.32;;;5.10;99.90;;;;;;4976030;28;20194;-61
2023/03/01 09:22:43;;;;;;;27.33;7.70;;;5.10;99.90;;;;;;4975881;28;20285;-60
2023/03/01 09:25:10;;;;;;;7.00;6.30;;;5.10;99.90;;;;;;4975633;28;20717;-56
2023/03/01 09:27:36;;;;;;;6.80;5.63;;;5.10;99.90;;;;;;4975850;28;20286;-57
2023/03/01 09:30:04;;;;;;;5.68;5.07;;;5.10;99.90;;;;;;4975378;28;20330;-63
2023/03/01 09:32:31;;;;;;;6.28;5.25;;;5.20;99.90;;;;;;4975611;28;20221;-61
2023/03/01 09:35:04;;;;;;;12.20;6.10;;;5.30;99.90;;;;;;4975512;28;20365;-60
2023/03/01 09:37:31;;;;;;;6.45;5.30;;;5.50;99.90;;;;;;4975874;28;20197;-61
2023/03/01 09:39:58;;;;;;;6.35;5.45;;;5.50;99.90;;;;;;4975843;28;20586;-60
2023/03/01 09:42:25;;;;;;;7.25;4.35;;;5.40;99.90;;;;;;4975639;28;20204;-62
2023/03/01 09:44:57;;;;;;;5.13;4.63;;;5.40;99.90;;;;;;4975370;28;20224;-62
2023/03/01 09:47:27;;;;;;;5.70;4.63;;;5.60;99.90;;;;;;4975541;28;20200;-60
2023/03/01 09:50:02;;;;;;;8.75;4.93;;;5.70;99.90;;;;;;4975300;28;20264;-62
2023/03/01 09:52:37;;;;;;;15.93;6.00;;;5.80;99.90;;;;;;4975705;28;20237;-61
2023/03/01 09:55:11;;;;;;;5.35;3.90;;;5.80;99.90;;;;;;4975217;28;20288;-57
2023/03/01 09:57:44;;;;;;;5.88;4.00;;;5.90;99.90;;;;;;4975230;28;20203;-60
2023/03/01 10:00:27;;;;;;;8.57;4.25;;;6.00;99.90;;;;;;4975457;28;20307;-60
2023/03/01 10:03:00;;;;;;;13.18;4.05;;;6.00;99.90;;;;;;4974981;28;20203;-60
2023/03/01 10:05:37;;;;;;;7.93;4.47;;;6.00;99.90;;;;;;4975096;28;20198;-62
2023/03/01 10:08:35;;;;;;;5.00;4.43;;;6.00;99.90;;;;;;4974703;28;20210;-62
2023/03/01 10:11:03;;;;;;;3.40;3.07;;;6.00;99.90;;;;;;4974989;28;20454;-60
2023/03/01 10:13:37;;;;;;;6.72;3.75;;;6.10;99.90;;;;;;4974965;28;20816;-60
2023/03/01 10:16:12;;;;;;;3.25;2.92;;;6.20;99.90;;;;;;4974856;28;20587;-60
2023/03/01 10:18:40;;;;;;;6.38;3.20;;;6.30;99.90;;;;;;4974998;28;20193;-63
2023/03/01 10:21:15;;;;;;;4.57;3.08;;;6.30;99.90;;;;;;4974695;28;20283;-59
2023/03/01 10:23:41;;;;;;;7.55;3.70;;;6.30;99.90;;;;;;4974611;28;20202;-60
2023/03/01 10:26:18;;;;;;;5.23;4.20;;;6.40;99.90;;;;;;4974628;28;20206;-60
2023/03/01 10:29:04;;;;;;;4.95;4.50;;;6.40;99.90;;;;;;4974592;28;20485;-59
2023/03/01 10:31:40;;;;;;;4.70;3.67;;;6.40;99.90;;;;;;4975007;28;20196;-59
2023/03/01 10:34:11;;;;;;;3.97;3.60;;;6.40;99.90;;;;;;4974754;28;20203;-59
2023/03/01 10:36:40;;;;;;;4.70;4.30;;;6.40;99.90;;;;;;4974600;28;20233;-58
2023/03/01 10:39:14;;;;;;;4.97;4.43;;;6.40;99.90;;;;;;4974311;28;20633;-59
2023/03/01 10:41:55;;;;;;;7.40;4.73;;;6.40;99.90;;;;;;4974580;28;20657;-58
2023/03/01 10:44:40;;;;;;;5.10;4.30;;;6.40;99.90;;;;;;4974792;28;20534;-61
2023/03/01 10:47:15;;;;;;;6.25;4.50;;;6.40;99.90;;;;;;4974545;28;21030;-60
2023/03/01 10:49:56;;;;;;;5.60;4.57;;;6.40;99.90;;;;;;4974320;28;20259;-61
2023/03/01 10:52:28;;;;;;;5.60;4.53;;;6.50;99.90;;;;;;4974578;28;20196;-64
2023/03/01 10:54:57;;;;;;;4.60;3.77;;;6.40;99.90;;;;;;4974715;28;20606;-62
2023/03/01 10:57:32;;;;;;;4.27;3.83;;;6.50;99.90;;;;;;4974393;28;20454;-63
2023/03/01 11:00:16;;;;;;;4.90;4.30;;;6.50;99.90;;;;;;4974155;28;20507;-60
2023/03/01 11:02:42;;;;;;;4.68;4.03;;;6.60;99.90;;;;;;4974540;28;20827;-63
2023/03/01 11:05:20;;;;;;;6.47;4.07;;;6.70;99.90;;;;;;4974305;28;20282;-61
2023/03/01 11:07:50;;;;;;;4.20;3.70;;;6.80;99.90;;;;;;4974444;28;20451;-60
2023/03/01 11:10:18;;;;;;;4.33;3.93;;;6.80;99.90;;;;;;4974229;28;20854;-60
2023/03/01 11:12:45;;;;;;;4.73;3.70;;;6.80;99.90;;;;;;4974437;28;20823;-61
2023/03/01 11:15:23;;;;;;;4.60;4.10;;;6.90;99.90;;;;;;4974359;28;20459;-62
2023/03/01 11:17:50;;;;;;;3.57;3.23;;;6.90;99.90;;;;;;4974265;28;20455;-63
2023/03/01 11:20:24;;;;;;;4.70;3.20;;;7.10;99.60;;;;;;4973550;28;20455;-65
2023/03/01 11:22:54;;;;;;;5.00;3.73;;;7.20;97.80;;;;;;4973641;28;20469;-63
2023/03/01 11:25:25;;;;;;;3.93;3.10;;;7.20;98.10;;;;;;4974002;28;20448;-60
2023/03/01 11:27:54;;;;;;;4.10;3.60;;;7.30;98.50;;;;;;4973954;28;20546;-61
2023/03/01 11:30:23;;;;;;;8.70;4.03;;;7.50;99.10;;;;;;4973880;28;20566;-61
2023/03/01 11:32:58;;;;;;;3.73;3.40;;;7.50;97.80;;;;;;4973960;28;20458;-60
2023/03/01 11:35:27;;;;;;;3.10;2.80;;;7.50;97.00;;;;;;4973604;28;20567;-59
2023/03/01 11:38:03;;;;;;;4.50;3.80;;;7.50;97.00;;;;;;4974090;28;20460;-62
2023/03/01 11:40:36;;;;;;;6.00;4.57;;;7.60;95.40;;;;;;4974041;28;20456;-61
2023/03/01 11:43:13;;;;;;;4.80;3.80;;;7.60;95.30;;;;;;4973533;28;20570;-61
2023/03/01 11:45:48;;;;;;;4.53;3.77;;;7.70;95.20;;;;;;4973843;28;20522;-59
2023/03/01 11:48:47;;;;;;;4.87;3.37;;;7.60;94.50;;;;;;4973769;28;20543;-62
2023/03/01 11:51:24;;;;;;;4.13;3.73;;;7.70;95.30;;;;;;4973184;28;20850;-64
2023/03/01 11:54:02;;;;;;;11.77;4.30;;;7.70;95.80;;;;;;4973637;28;20459;-65
2023/03/01 11:56:34;;;;;;;4.33;3.93;;;7.80;96.00;;;;;;4973767;28;20951;-66
2023/03/01 11:59:40;;;;;;;3.93;3.57;;;7.80;94.70;;;;;;4973956;28;20827;-64
2023/03/01 12:02:28;;;;;;;4.43;4.10;;;7.90;95.60;;;;;;4972441;28;20962;-63
2023/03/01 12:05:09;;;;;;;10.47;4.53;;;8.00;94.50;;;;;;4973940;28;20792;-63
2023/03/01 12:07:45;;;;;;;4.40;3.30;;;8.00;95.00;;;;;;4973841;28;20870;-64
2023/03/01 12:10:34;;;;;;;3.50;3.20;;;8.10;93.80;;;;;;4973657;28;20608;-64
2023/03/01 12:13:30;;;;;;;6.97;3.50;;;8.20;93.40;;;;;;4973686;28;20459;-60
2023/03/01 12:16:12;;;;;;;3.40;2.70;;;8.10;93.40;;;;;;4973797;28;20451;-59
2023/03/01 12:19:02;;;;;;;4.13;3.70;;;8.00;93.70;;;;;;4973423;28;20542;-56
2023/03/01 12:21:41;;;;;;;5.10;3.00;;;8.20;94.90;;;;;;4973783;28;20527;-60
2023/03/01 12:24:45;;;;;;;3.20;2.90;;;8.20;93.60;;;;;;4973637;28;20455;-61
2023/03/01 12:27:37;;;;;;;3.40;3.10;;;8.20;93.80;;;;;;4971146;28;20451;-62
2023/03/01 12:30:22;;;;;;;4.07;3.30;;;8.30;92.50;;;;;;4974575;28;20677;-60
2023/03/01 12:32:56;;;;;;;3.60;3.00;;;8.30;92.60;;;;;;4977141;28;20455;-62
2023/03/01 12:35:42;;;;;;;3.30;3.00;;;8.40;90.80;;;;;;4976865;28;20482;-59
2023/03/01 12:38:25;;;;;;;2.70;2.50;;;8.30;90.70;;;;;;4976810;28;21021;-61
2023/03/01 12:41:12;;;;;;;4.07;2.60;;;8.40;91.60;;;;;;4976925;28;20443;-61
2023/03/01 12:43:54;;;;;;;2.77;2.50;;;8.30;88.30;;;;;;4976953;28;20566;-60
2023/03/01 12:46:33;;;;;;;2.90;2.70;;;8.40;88.50;;;;;;4976082;28;20893;-60
2023/03/01 12:49:10;;;;;;;2.50;2.23;;;8.40;89.50;;;;;;4976735;28;20195;-61
2023/03/01 12:51:38;;;;;;;3.47;2.17;;;8.50;88.40;;;;;;4976783;28;20457;-61